Time;durP1;ratioP1;P1;durP2;ratioP2;P2;SDS_P1;SDS_P2;PMS_P1;PMS_P2;Temp;Humidity;BMP_temperature;BMP_pressure;BME280_temperature;BME280_humidity;BME280_pressure;Samples;Min_cycle;Max_cycle;Signal;HPM_P1;HPM_P2
2022/05/07 00:01:19;;;;;;;30.08;19.50;;;11.00;99.90;;;;;;5032458;28;20041;-85
2022/05/07 00:03:46;;;;;;;26.98;19.77;;;11.00;99.90;;;;;;5050460;28;20045;-85
2022/05/07 00:06:11;;;;;;;28.52;19.85;;;11.00;99.90;;;;;;5033809;28;20406;-85
2022/05/07 00:08:37;;;;;;;28.67;19.35;;;11.00;99.90;;;;;;5032974;28;20041;-85
2022/05/07 00:11:03;;;;;;;26.73;19.13;;;11.00;99.90;;;;;;5032539;28;20049;-87
2022/05/07 00:13:28;;;;;;;27.98;20.05;;;11.00;99.90;;;;;;5033903;28;20081;-85
2022/05/07 00:18:38;;;;;;;25.80;19.90;;;11.00;99.90;;;;;;5071813;28;20063;-85
2022/05/07 00:21:03;;;;;;;25.48;20.20;;;11.00;99.90;;;;;;5073446;28;20040;-85
2022/05/07 00:23:30;;;;;;;24.45;19.05;;;11.10;99.90;;;;;;5055805;28;20044;-85
2022/05/07 00:25:56;;;;;;;26.13;18.70;;;11.20;99.90;;;;;;5055262;28;20052;-85
2022/05/07 00:28:22;;;;;;;26.38;19.65;;;11.20;99.90;;;;;;5036992;28;20051;-85
2022/05/07 00:30:48;;;;;;;26.98;19.38;;;11.30;99.90;;;;;;5053294;28;20041;-85
2022/05/07 00:33:13;;;;;;;30.60;19.40;;;11.50;99.90;;;;;;5035738;28;20055;-84
2022/05/07 00:35:39;;;;;;;24.80;19.13;;;11.40;99.90;;;;;;5016516;28;20418;-84
2022/05/07 00:38:05;;;;;;;27.02;19.92;;;11.50;99.90;;;;;;5031282;28;20046;-85
2022/05/07 00:40:30;;;;;;;23.73;19.42;;;11.50;99.90;;;;;;5029155;28;20048;-86
2022/05/07 00:42:56;;;;;;;27.10;20.38;;;11.60;99.90;;;;;;5055018;28;20379;-87
2022/05/07 00:45:22;;;;;;;27.77;21.13;;;11.60;99.90;;;;;;5073281;28;20044;-85
2022/05/07 00:47:48;;;;;;;26.27;20.88;;;11.70;99.90;;;;;;5054840;28;20067;-86
2022/05/07 00:52:58;;;;;;;28.83;21.88;;;11.80;99.90;;;;;;5032932;28;20461;-85
2022/05/07 00:55:25;;;;;;;29.92;22.23;;;11.90;99.90;;;;;;5015721;28;20049;-85
2022/05/07 00:57:51;;;;;;;31.08;22.13;;;11.90;99.90;;;;;;5032259;28;20050;-85
2022/05/07 01:00:17;;;;;;;35.80;22.92;;;11.90;99.90;;;;;;4998803;28;20045;-85
2022/05/07 01:02:43;;;;;;;27.90;22.35;;;11.90;99.90;;;;;;5032815;28;20582;-85
2022/05/07 01:05:10;;;;;;;29.92;22.83;;;11.80;99.90;;;;;;5015428;28;20042;-85
2022/05/07 01:07:36;;;;;;;31.55;24.02;;;11.80;99.90;;;;;;5044531;28;20048;-85
2022/05/07 01:10:05;;;;;;;29.13;23.38;;;11.80;99.90;;;;;;5053043;28;20060;-86
2022/05/07 01:12:31;;;;;;;30.08;23.40;;;11.70;99.90;;;;;;5063307;28;20395;-85
2022/05/07 01:14:58;;;;;;;35.03;23.92;;;11.70;99.90;;;;;;5054575;28;20059;-85
2022/05/07 01:17:24;;;;;;;33.85;24.33;;;11.70;99.90;;;;;;5054666;28;20087;-84
2022/05/07 01:19:54;;;;;;;35.67;24.23;;;11.60;99.90;;;;;;5071785;28;20088;-85
2022/05/07 01:22:21;;;;;;;30.88;24.75;;;11.60;99.90;;;;;;5066706;28;20041;-84
2022/05/07 01:24:47;;;;;;;29.23;24.50;;;11.60;99.90;;;;;;5034619;28;20045;-85
2022/05/07 01:27:12;;;;;;;33.72;25.08;;;11.60;99.90;;;;;;5054138;28;20103;-85
2022/05/07 01:29:38;;;;;;;31.38;24.80;;;11.60;99.90;;;;;;5071338;28;20044;-84
2022/05/07 01:32:04;;;;;;;30.95;24.70;;;11.60;99.90;;;;;;5072269;28;20079;-84
2022/05/07 01:34:30;;;;;;;35.78;25.40;;;11.60;99.90;;;;;;5054937;28;20127;-84
2022/05/07 01:36:55;;;;;;;36.72;24.42;;;11.60;99.90;;;;;;5069487;28;20152;-85
2022/05/07 01:39:21;;;;;;;36.08;25.08;;;11.60;99.90;;;;;;5054095;28;20064;-84
2022/05/07 01:41:47;;;;;;;32.40;23.83;;;11.70;99.90;;;;;;5071675;28;20044;-85
2022/05/07 01:44:12;;;;;;;35.03;25.98;;;11.70;99.90;;;;;;5053102;28;20483;-84
2022/05/07 01:49:22;;;;;;;27.73;23.35;;;11.80;99.90;;;;;;5053137;28;20056;-84
2022/05/07 01:51:48;;;;;;;34.10;23.05;;;11.90;99.90;;;;;;5053968;28;20136;-84
2022/05/07 01:54:13;;;;;;;31.25;24.85;;;11.90;99.90;;;;;;5069624;28;20414;-85
2022/05/07 01:56:40;;;;;;;28.40;24.52;;;11.90;99.90;;;;;;5043819;28;20060;-84
2022/05/07 01:59:06;;;;;;;32.40;23.98;;;12.00;99.90;;;;;;5024140;28;20107;-84
2022/05/07 02:01:32;;;;;;;27.73;24.73;;;12.00;99.90;;;;;;5015659;28;20037;-84
2022/05/07 02:04:00;;;;;;;26.83;19.67;;;12.00;99.90;;;;;;5023134;28;20041;-85
2022/05/07 02:06:26;;;;;;;31.25;24.20;;;12.10;99.90;;;;;;5035981;28;20049;-84
2022/05/07 02:08:53;;;;;;;30.95;23.42;;;12.10;99.90;;;;;;5058983;28;20045;-84
2022/05/07 02:11:19;;;;;;;30.02;23.83;;;12.20;99.90;;;;;;5058938;28;20124;-85
2022/05/07 02:13:44;;;;;;;28.90;23.48;;;12.20;99.90;;;;;;5072098;28;20473;-85
2022/05/07 02:16:10;;;;;;;34.92;24.13;;;12.30;99.90;;;;;;5022727;28;20167;-84
2022/05/07 02:18:36;;;;;;;33.00;23.17;;;12.30;99.90;;;;;;5056420;28;20041;-85
2022/05/07 02:21:02;;;;;;;31.60;24.10;;;12.30;99.90;;;;;;5056316;28;20790;-85
2022/05/07 02:23:28;;;;;;;28.95;22.58;;;12.30;99.90;;;;;;5054789;28;20048;-85
2022/05/07 02:25:54;;;;;;;30.42;22.25;;;12.30;99.90;;;;;;5062266;28;20120;-86
2022/05/07 02:28:19;;;;;;;27.17;21.85;;;12.30;99.90;;;;;;5075950;28;20044;-85
2022/05/07 02:30:45;;;;;;;31.23;22.23;;;12.30;99.90;;;;;;5044219;28;20475;-86
2022/05/07 02:33:11;;;;;;;27.05;22.30;;;12.30;99.90;;;;;;5055575;28;20041;-85
2022/05/07 02:35:37;;;;;;;28.40;22.98;;;12.20;99.90;;;;;;5054829;28;20095;-85
2022/05/07 02:38:03;;;;;;;28.30;21.27;;;12.20;99.90;;;;;;5037732;28;20048;-85
2022/05/07 02:42:33;;;;;;;32.55;22.13;;;12.20;99.90;;;;;;5048136;28;20048;-85
2022/05/07 02:43:17;;;;;;;28.70;22.73;;;12.20;99.90;;;;;;5017702;28;20060;-85
2022/05/07 02:45:43;;;;;;;30.20;22.55;;;12.20;99.90;;;;;;5042707;28;20045;-88
2022/05/07 02:48:08;;;;;;;29.13;20.63;;;12.20;99.90;;;;;;5055304;28;20045;-88
2022/05/07 02:50:34;;;;;;;25.83;19.63;;;12.20;99.90;;;;;;5055420;28;20045;-85
2022/05/07 02:53:00;;;;;;;27.63;21.25;;;12.10;99.90;;;;;;5033892;28;20399;-85
2022/05/07 02:55:25;;;;;;;30.50;21.92;;;12.20;99.90;;;;;;5050333;28;20051;-85
2022/05/07 02:57:51;;;;;;;27.92;21.98;;;12.10;99.90;;;;;;5074982;28;20055;-85
2022/05/07 03:00:17;;;;;;;32.28;23.67;;;12.40;99.90;;;;;;5075225;28;20051;-85
2022/05/07 03:02:42;;;;;;;27.55;22.42;;;12.20;99.90;;;;;;5074376;28;20126;-84
2022/05/07 03:05:08;;;;;;;29.23;22.33;;;12.10;99.90;;;;;;5057315;28;20052;-85
2022/05/07 03:07:34;;;;;;;31.08;21.60;;;12.00;99.90;;;;;;5073741;28;20052;-85
2022/05/07 03:10:00;;;;;;;29.38;23.50;;;12.10;99.90;;;;;;5039903;28;20056;-85
2022/05/07 03:12:27;;;;;;;31.52;23.23;;;12.20;99.90;;;;;;5073062;28;20044;-85
2022/05/07 03:14:52;;;;;;;29.08;22.67;;;12.10;99.90;;;;;;5059451;28;20081;-85
2022/05/07 03:17:18;;;;;;;30.00;23.85;;;12.00;99.90;;;;;;5030685;28;20092;-85
2022/05/07 03:19:44;;;;;;;29.38;22.85;;;12.10;99.90;;;;;;5016162;28;20052;-84
2022/05/07 03:22:09;;;;;;;30.58;23.33;;;12.00;99.90;;;;;;5016737;28;20103;-84
2022/05/07 03:24:38;;;;;;;27.25;22.27;;;12.00;99.90;;;;;;5016584;28;20064;-85
2022/05/07 03:27:05;;;;;;;33.15;23.60;;;12.00;99.90;;;;;;5054403;28;20052;-85
2022/05/07 03:29:30;;;;;;;27.75;22.60;;;12.00;99.90;;;;;;5016945;28;20049;-84
2022/05/07 03:31:56;;;;;;;29.55;23.25;;;12.00;99.90;;;;;;5030764;28;20441;-84
2022/05/07 03:34:22;;;;;;;28.02;23.20;;;12.00;99.90;;;;;;5068591;28;20052;-84
2022/05/07 03:36:47;;;;;;;27.83;22.58;;;11.90;99.90;;;;;;5037298;28;20041;-87
2022/05/07 03:39:13;;;;;;;29.70;23.70;;;12.10;99.90;;;;;;5033598;28;20053;-85
2022/05/07 03:41:39;;;;;;;31.25;24.17;;;12.00;99.90;;;;;;5034558;28;20053;-85
2022/05/07 03:44:05;;;;;;;29.42;23.52;;;12.00;99.90;;;;;;5047823;28;20509;-85
2022/05/07 03:46:31;;;;;;;32.88;24.35;;;12.00;99.90;;;;;;5056130;28;20127;-86
2022/05/07 03:48:56;;;;;;;30.77;23.55;;;12.00;99.90;;;;;;5073542;28;20105;-85
2022/05/07 03:51:22;;;;;;;30.55;23.08;;;12.00;99.90;;;;;;5072603;28;20052;-85
2022/05/07 03:53:48;;;;;;;32.45;23.38;;;12.10;99.90;;;;;;5056532;28;20511;-85
2022/05/07 03:56:14;;;;;;;32.30;24.25;;;12.10;99.90;;;;;;5074322;28;20493;-86
2022/05/07 03:58:40;;;;;;;31.52;24.55;;;12.10;99.90;;;;;;5054230;28;20037;-87
2022/05/07 04:01:08;;;;;;;29.38;23.33;;;12.10;99.90;;;;;;5072339;28;20102;-85
2022/05/07 04:03:34;;;;;;;29.27;23.23;;;12.10;99.90;;;;;;5055419;28;20089;-86
2022/05/07 04:05:59;;;;;;;29.42;24.80;;;12.10;99.90;;;;;;5034807;28;20068;-85
2022/05/07 04:08:25;;;;;;;28.70;22.42;;;12.10;99.90;;;;;;5034278;28;20049;-85
2022/05/07 04:10:53;;;;;;;34.38;24.25;;;12.10;99.90;;;;;;5034455;28;20060;-85
2022/05/07 04:13:18;;;;;;;31.02;25.27;;;12.10;99.90;;;;;;5001266;28;20060;-85
2022/05/07 04:15:44;;;;;;;27.63;22.35;;;12.10;99.90;;;;;;5034159;28;20050;-85
2022/05/07 04:18:11;;;;;;;33.83;23.27;;;12.10;99.90;;;;;;5033063;28;20049;-85
2022/05/07 04:20:37;;;;;;;30.17;23.80;;;12.10;99.90;;;;;;5033857;28;20056;-86
2022/05/07 04:23:04;;;;;;;27.75;24.25;;;12.10;99.90;;;;;;5016043;28;20059;-85
2022/05/07 04:25:30;;;;;;;32.78;24.90;;;12.00;99.90;;;;;;5044629;28;20045;-83
2022/05/07 04:27:56;;;;;;;30.35;23.73;;;12.00;99.90;;;;;;5073512;28;20048;-83
2022/05/07 04:30:23;;;;;;;35.58;25.27;;;12.00;99.90;;;;;;5072433;28;20501;-85
2022/05/07 04:32:49;;;;;;;30.15;24.02;;;12.00;99.90;;;;;;5057406;28;20482;-83
2022/05/07 04:35:15;;;;;;;30.55;24.23;;;12.10;99.90;;;;;;5035315;28;20446;-83
2022/05/07 04:37:41;;;;;;;31.25;25.60;;;12.10;99.90;;;;;;5053177;28;20044;-83
2022/05/07 04:40:09;;;;;;;35.67;24.75;;;12.10;99.90;;;;;;5035271;28;20068;-83
2022/05/07 04:42:35;;;;;;;30.65;24.77;;;12.10;99.90;;;;;;5018543;28;20525;-83
2022/05/07 04:45:01;;;;;;;32.13;24.63;;;12.20;99.90;;;;;;5036254;28;20048;-83
2022/05/07 04:47:27;;;;;;;32.78;24.77;;;12.20;99.90;;;;;;5053662;28;20094;-83
2022/05/07 04:49:53;;;;;;;31.60;24.33;;;12.30;99.90;;;;;;5035258;28;20068;-83
2022/05/07 04:52:18;;;;;;;30.33;24.65;;;12.30;99.90;;;;;;5069353;28;20487;-83
2022/05/07 04:54:44;;;;;;;29.98;24.42;;;12.40;99.90;;;;;;5055537;28;20131;-85
2022/05/07 04:57:09;;;;;;;30.35;23.98;;;12.40;99.90;;;;;;5055517;28;20390;-84
2022/05/07 04:59:35;;;;;;;24.88;21.45;;;12.40;99.90;;;;;;5072674;28;20405;-84
2022/05/07 05:02:01;;;;;;;33.72;26.00;;;12.50;99.90;;;;;;5070479;28;20131;-84
2022/05/07 05:04:26;;;;;;;30.42;24.48;;;12.40;99.90;;;;;;5055315;28;20040;-85
2022/05/07 05:06:52;;;;;;;27.92;21.63;;;12.40;99.90;;;;;;5042597;28;20455;-85
2022/05/07 05:09:18;;;;;;;29.08;24.02;;;12.50;99.90;;;;;;5015730;28;20395;-85
2022/05/07 05:11:43;;;;;;;29.05;23.30;;;12.80;99.90;;;;;;5015579;28;20107;-85
2022/05/07 05:16:53;;;;;;;30.38;24.60;;;12.60;99.90;;;;;;5046958;28;20145;-84
2022/05/07 05:19:19;;;;;;;29.38;23.10;;;12.60;99.90;;;;;;5032757;28;20125;-84
2022/05/07 05:21:45;;;;;;;31.27;24.33;;;12.70;99.90;;;;;;5014521;28;20103;-84
2022/05/07 05:24:12;;;;;;;32.72;25.20;;;12.70;99.90;;;;;;5036117;28;20040;-83
2022/05/07 05:26:37;;;;;;;31.50;23.83;;;12.80;99.90;;;;;;5072669;28;20127;-84
2022/05/07 05:29:03;;;;;;;26.92;22.95;;;12.70;99.90;;;;;;5071335;28;20132;-84
2022/05/07 05:31:30;;;;;;;28.25;22.80;;;12.80;99.90;;;;;;5073228;28;20158;-84
2022/05/07 05:33:57;;;;;;;30.77;22.95;;;12.90;99.90;;;;;;5052761;28;20052;-86
2022/05/07 05:36:24;;;;;;;28.55;23.60;;;12.90;99.90;;;;;;5054393;28;20060;-85
2022/05/07 05:38:49;;;;;;;30.33;23.00;;;13.00;99.90;;;;;;5062656;28;20060;-84
2022/05/07 05:41:15;;;;;;;37.00;24.08;;;13.00;99.90;;;;;;5052285;28;20158;-85
2022/05/07 05:43:41;;;;;;;32.22;21.58;;;13.10;99.90;;;;;;5054853;28;20041;-85
2022/05/07 05:46:07;;;;;;;29.60;22.65;;;13.20;99.90;;;;;;5022618;28;20097;-85
2022/05/07 05:48:32;;;;;;;28.88;21.83;;;13.30;99.90;;;;;;5035874;28;20589;-85
2022/05/07 05:50:59;;;;;;;25.98;21.92;;;13.50;99.90;;;;;;5036227;28;20852;-85
2022/05/07 05:53:25;;;;;;;28.98;22.55;;;13.50;99.90;;;;;;5036494;28;20052;-86
2022/05/07 05:55:50;;;;;;;27.20;22.23;;;13.90;99.90;;;;;;5036083;28;20482;-85
2022/05/07 05:58:16;;;;;;;29.55;23.30;;;13.80;99.90;;;;;;5076895;28;20060;-85
2022/05/07 06:00:41;;;;;;;29.55;24.67;;;13.90;99.90;;;;;;5076386;28;20110;-85
2022/05/07 06:03:07;;;;;;;30.27;23.45;;;14.00;99.90;;;;;;5076171;28;20040;-84
2022/05/07 06:05:33;;;;;;;29.10;22.25;;;14.10;99.90;;;;;;5060862;28;20063;-85
2022/05/07 06:07:59;;;;;;;30.40;24.15;;;14.20;99.90;;;;;;5038121;28;20458;-85
2022/05/07 06:10:25;;;;;;;30.92;23.10;;;14.40;99.90;;;;;;5046617;28;20118;-86
2022/05/07 06:12:51;;;;;;;27.70;22.38;;;14.40;99.90;;;;;;5020892;28;20510;-85
2022/05/07 06:15:17;;;;;;;28.73;22.42;;;14.50;99.90;;;;;;5044923;28;20040;-85
2022/05/07 06:17:43;;;;;;;26.58;21.95;;;14.50;99.90;;;;;;5056892;28;20056;-86
2022/05/07 06:20:09;;;;;;;29.38;21.25;;;14.60;99.90;;;;;;5052588;28;20380;-86
2022/05/07 06:22:34;;;;;;;28.05;21.80;;;14.70;99.90;;;;;;5053860;28;20132;-85
2022/05/07 06:27:44;;;;;;;28.95;23.20;;;14.80;99.90;;;;;;5037683;28;20088;-85
2022/05/07 06:30:10;;;;;;;26.00;21.60;;;14.80;99.90;;;;;;5017949;28;20080;-84
2022/05/07 06:32:40;;;;;;;29.98;22.52;;;14.80;99.90;;;;;;5019265;28;20049;-85
2022/05/07 06:35:08;;;;;;;28.33;22.58;;;14.90;99.90;;;;;;5034592;28;20040;-85
2022/05/07 06:37:35;;;;;;;26.90;21.88;;;14.90;99.90;;;;;;5049360;28;20088;-85
2022/05/07 06:40:03;;;;;;;30.52;21.45;;;14.90;99.90;;;;;;5037620;28;20139;-85
2022/05/07 06:42:28;;;;;;;26.35;20.17;;;15.10;99.90;;;;;;5055317;28;20052;-85
2022/05/07 06:44:54;;;;;;;26.95;20.13;;;15.20;99.90;;;;;;5055601;28;20048;-85
2022/05/07 06:47:20;;;;;;;23.75;17.50;;;15.50;99.90;;;;;;5035496;28;20071;-85
2022/05/07 06:49:46;;;;;;;26.75;17.48;;;15.80;99.90;;;;;;5055212;28;20091;-85
2022/05/07 06:52:12;;;;;;;20.52;15.75;;;16.00;99.90;;;;;;5037642;28;20057;-87
2022/05/07 06:54:38;;;;;;;19.95;16.23;;;16.20;99.90;;;;;;5053379;28;20044;-85
2022/05/07 06:57:04;;;;;;;21.08;15.75;;;16.30;99.90;;;;;;5054042;28;20130;-86
2022/05/07 06:59:36;;;;;;;23.80;16.35;;;16.20;99.90;;;;;;5055404;28;20555;-85
2022/05/07 07:02:02;;;;;;;21.63;15.80;;;16.10;99.90;;;;;;5037302;28;20045;-85
2022/05/07 07:04:28;;;;;;;19.98;15.25;;;16.00;99.90;;;;;;5020779;28;20053;-85
2022/05/07 07:06:54;;;;;;;21.70;16.17;;;16.00;99.90;;;;;;5037274;28;20074;-89
2022/05/07 07:09:20;;;;;;;20.65;17.02;;;15.80;99.90;;;;;;5020741;28;20053;-85
2022/05/07 07:11:45;;;;;;;25.75;16.75;;;15.70;99.90;;;;;;5037614;28;20130;-85
2022/05/07 07:14:12;;;;;;;24.48;17.02;;;15.80;99.90;;;;;;5020742;28;20633;-84
2022/05/07 07:16:37;;;;;;;23.23;17.08;;;15.90;99.90;;;;;;5037803;28;20049;-83
2022/05/07 07:19:04;;;;;;;25.20;17.23;;;16.10;99.90;;;;;;5059609;28;20506;-85
2022/05/07 07:21:30;;;;;;;23.60;16.85;;;16.50;99.90;;;;;;5053765;28;20124;-85
2022/05/07 07:23:55;;;;;;;18.90;15.98;;;16.60;99.90;;;;;;5019336;28;20069;-85
2022/05/07 07:26:21;;;;;;;21.35;16.42;;;16.80;99.90;;;;;;5033884;28;20045;-85
2022/05/07 07:28:47;;;;;;;19.13;15.55;;;17.00;99.90;;;;;;5033860;28;20096;-86
2022/05/07 07:31:13;;;;;;;22.05;16.02;;;17.30;99.90;;;;;;5034384;28;20239;-86
2022/05/07 07:33:39;;;;;;;19.73;14.07;;;17.50;99.90;;;;;;5018901;28;20140;-85
2022/05/07 07:36:07;;;;;;;20.40;13.48;;;17.60;99.90;;;;;;5055839;28;20540;-86
2022/05/07 07:38:32;;;;;;;21.27;15.55;;;17.80;99.90;;;;;;5048110;28;20376;-85
2022/05/07 07:40:58;;;;;;;19.08;16.05;;;17.90;99.90;;;;;;5019187;28;20107;-86
2022/05/07 07:43:24;;;;;;;20.42;14.50;;;18.10;99.90;;;;;;5054412;28;20102;-87
2022/05/07 07:48:34;;;;;;;14.73;11.57;;;18.30;99.90;;;;;;5054177;28;20060;-85
2022/05/07 07:51:00;;;;;;;16.58;11.63;;;18.40;99.90;;;;;;5036065;28;20084;-86
2022/05/07 07:53:26;;;;;;;19.30;11.85;;;18.40;99.90;;;;;;5053034;28;20514;-85
2022/05/07 07:55:52;;;;;;;21.45;12.43;;;18.40;99.90;;;;;;5019969;28;20060;-84
2022/05/07 07:58:18;;;;;;;19.70;13.13;;;18.30;99.90;;;;;;5044129;28;20045;-86
2022/05/07 08:00:47;;;;;;;19.15;12.20;;;18.30;99.90;;;;;;5039649;28;20101;-85
2022/05/07 08:03:17;;;;;;;18.92;12.13;;;18.20;99.90;;;;;;5039526;28;20390;-86
2022/05/07 08:05:45;;;;;;;19.33;11.85;;;18.30;99.90;;;;;;5044339;28;20418;-85
2022/05/07 08:13:42;;;;;;;20.58;12.30;;;20.50;99.80;;;;;;5036881;28;20060;-85
2022/05/07 08:16:09;;;;;;;20.95;12.75;;;21.20;97.30;;;;;;5025714;28;20060;-85
2022/05/07 08:18:36;;;;;;;21.08;14.40;;;21.60;93.60;;;;;;5016294;28;20049;-84
2022/05/07 08:21:03;;;;;;;21.35;15.52;;;21.60;92.20;;;;;;5032428;28;20049;-87
2022/05/07 08:23:28;;;;;;;21.83;15.13;;;21.20;94.20;;;;;;5033864;28;20046;-87
2022/05/07 08:25:55;;;;;;;21.35;15.63;;;20.80;96.40;;;;;;5019513;28;20060;-84
2022/05/07 08:28:21;;;;;;;23.75;15.98;;;20.60;97.80;;;;;;5034844;28;20445;-85
2022/05/07 08:30:49;;;;;;;22.50;15.70;;;20.30;99.30;;;;;;5053563;28;20049;-86
2022/05/07 08:33:17;;;;;;;26.55;16.63;;;19.80;99.90;;;;;;5036182;28;20116;-86
2022/05/07 08:35:43;;;;;;;23.85;16.05;;;19.60;99.90;;;;;;5015497;28;20060;-87
2022/05/07 08:38:09;;;;;;;27.92;17.15;;;19.30;99.90;;;;;;5039839;28;20076;-86
2022/05/07 08:40:35;;;;;;;23.88;16.50;;;19.10;99.90;;;;;;5047939;28;20056;-87
2022/05/07 08:43:03;;;;;;;26.83;16.35;;;18.90;99.90;;;;;;5060375;28;20045;-87
2022/05/07 08:45:29;;;;;;;26.75;17.55;;;18.80;99.90;;;;;;5055488;28;20516;-87
2022/05/07 08:47:54;;;;;;;22.83;16.95;;;18.80;99.90;;;;;;5041137;28;20057;-87
2022/05/07 08:50:21;;;;;;;24.42;16.95;;;18.80;99.90;;;;;;5018923;28;20091;-88
2022/05/07 08:52:49;;;;;;;27.90;18.13;;;18.90;99.90;;;;;;5019003;28;20570;-87
2022/05/07 08:55:18;;;;;;;29.35;17.80;;;19.00;99.90;;;;;;5035356;28;20041;-91
2022/05/07 08:57:48;;;;;;;23.90;16.90;;;19.00;99.90;;;;;;5053103;28;20055;-87
2022/05/07 09:00:16;;;;;;;25.10;16.90;;;19.20;99.90;;;;;;5034093;28;20051;-86
2022/05/07 09:02:43;;;;;;;24.67;16.10;;;19.30;99.90;;;;;;5072872;28;20128;-83
2022/05/07 09:05:10;;;;;;;24.75;16.08;;;19.30;99.90;;;;;;5072295;28;20410;-84
2022/05/07 09:07:39;;;;;;;28.65;17.08;;;19.30;99.90;;;;;;5071935;28;20568;-85
2022/05/07 09:10:12;;;;;;;25.83;16.15;;;19.50;99.90;;;;;;5073250;28;20059;-85
2022/05/07 09:12:38;;;;;;;22.23;15.77;;;19.70;99.90;;;;;;5072881;28;20079;-85
2022/05/07 09:15:08;;;;;;;26.05;15.80;;;19.80;99.90;;;;;;5072596;28;20064;-86
2022/05/07 09:17:36;;;;;;;21.77;15.93;;;20.00;99.90;;;;;;5073104;28;20059;-85
2022/05/07 09:20:12;;;;;;;26.27;14.63;;;20.20;99.90;;;;;;5074728;28;20052;-86
2022/05/07 09:22:55;;;;;;;23.80;15.63;;;20.70;99.90;;;;;;5057583;28;20064;-85
2022/05/07 09:25:26;;;;;;;23.98;14.43;;;21.50;97.10;;;;;;5074740;28;20043;-85
2022/05/07 09:27:55;;;;;;;20.20;13.27;;;22.90;95.70;;;;;;5066728;28;20037;-86
2022/05/07 09:30:24;;;;;;;23.98;15.10;;;24.70;84.10;;;;;;5058599;28;20420;-86
2022/05/07 09:32:54;;;;;;;23.70;15.45;;;26.20;69.10;;;;;;5073488;28;20052;-86
2022/05/07 09:38:08;;;;;;;21.75;14.07;;;25.90;64.20;;;;;;5057136;28;20402;-86
2022/05/07 09:40:43;;;;;;;27.75;15.13;;;26.20;64.60;;;;;;5072553;28;20041;-85
2022/05/07 09:43:11;;;;;;;23.02;14.57;;;26.40;61.70;;;;;;5046753;28;20046;-86
2022/05/07 09:45:38;;;;;;;23.63;14.85;;;25.90;62.80;;;;;;5016043;28;20063;-88
2022/05/07 09:48:05;;;;;;;26.65;15.80;;;25.40;64.50;;;;;;5039685;28;20041;-87
2022/05/07 09:58:41;;;;;;;22.05;15.77;;;23.00;78.50;;;;;;5052608;28;20111;-86
2022/05/07 10:01:51;;;;;;;22.13;14.95;;;22.30;86.00;;;;;;5018085;28;20036;-87
2022/05/07 10:04:32;;;;;;;23.48;15.07;;;21.90;91.10;;;;;;5011704;28;20101;-87
2022/05/07 10:06:58;;;;;;;;;;;21.60;94.30;;;;;;5014172;28;20058;-87
2022/05/07 10:09:37;;;;;;;28.10;16.02;;;21.30;93.30;;;;;;5013677;28;19978;-87
2022/05/07 10:12:03;;;;;;;26.17;15.77;;;21.00;96.80;;;;;;5013885;28;20176;-87
2022/05/07 10:14:31;;;;;;;24.52;16.55;;;21.10;98.80;;;;;;5021808;28;20053;-86
2022/05/07 10:17:21;;;;;;;25.88;16.17;;;21.30;97.00;;;;;;5010516;28;20046;-88
2022/05/07 10:19:50;;;;;;;24.63;16.17;;;21.50;97.30;;;;;;5006543;28;20511;-86
2022/05/07 10:22:21;;;;;;;27.35;16.63;;;21.80;96.20;;;;;;5023092;28;20058;-88
2022/05/07 10:25:07;;;;;;;24.42;16.52;;;22.10;93.40;;;;;;5010397;28;20054;-87
2022/05/07 10:27:37;;;;;;;24.88;15.75;;;22.20;92.40;;;;;;4976646;28;20065;-88
2022/05/07 10:30:17;;;;;;;23.40;16.67;;;22.60;91.40;;;;;;5012193;28;20687;-86
2022/05/07 10:33:03;;;;;;;47.17;17.75;;;22.80;89.40;;;;;;5013994;28;20167;-88
2022/05/07 10:35:54;;;;;;;23.63;15.98;;;22.90;85.40;;;;;;4996969;28;20060;-86
2022/05/07 10:38:39;;;;;;;24.95;16.52;;;22.90;86.40;;;;;;5013669;28;20052;-88
2022/05/07 10:41:07;;;;;;;25.23;17.73;;;22.70;89.70;;;;;;5025654;28;20184;-86
2022/05/07 10:43:42;;;;;;;26.08;16.80;;;22.50;88.40;;;;;;5035690;28;20056;-85
2022/05/07 10:46:20;;;;;;;26.08;18.02;;;22.50;87.00;;;;;;5018848;28;20096;-86
2022/05/07 10:48:47;;;;;;;27.65;18.45;;;22.30;88.60;;;;;;5018488;28;20096;-86
2022/05/07 10:51:35;;;;;;;24.23;16.88;;;22.20;88.20;;;;;;5019533;28;20053;-88
2022/05/07 10:54:22;;;;;;;26.50;18.40;;;22.30;92.20;;;;;;5038249;28;20053;-86
2022/05/07 10:56:54;;;;;;;26.20;18.60;;;22.60;89.60;;;;;;5015274;28;20038;-87
2022/05/07 10:59:22;;;;;;;29.83;18.33;;;22.80;85.20;;;;;;5040152;28;20072;-86
2022/05/07 11:01:48;;;;;;;26.67;19.50;;;22.80;84.50;;;;;;5020105;28;20045;-89
2022/05/07 11:04:18;;;;;;;26.77;19.67;;;23.00;82.20;;;;;;5001836;28;20056;-87
2022/05/07 11:06:49;;;;;;;27.48;19.25;;;23.30;84.20;;;;;;5019893;28;20057;-89
2022/05/07 11:09:23;;;;;;;26.95;19.50;;;24.00;76.20;;;;;;5035486;28;20084;-87
2022/05/07 11:11:54;;;;;;;23.70;18.67;;;24.50;76.10;;;;;;5017567;28;20128;-86
2022/05/07 11:14:32;;;;;;;27.25;19.70;;;24.90;69.20;;;;;;5016099;28;20045;-86
2022/05/07 11:16:59;;;;;;;24.80;19.83;;;25.10;67.90;;;;;;5016992;28;20062;-87
2022/05/07 11:19:28;;;;;;;27.45;20.30;;;25.10;67.60;;;;;;5001362;28;20050;-87
2022/05/07 11:21:56;;;;;;;26.42;19.65;;;25.10;69.00;;;;;;5017037;28;20071;-87
2022/05/07 11:24:25;;;;;;;22.80;18.30;;;25.20;72.20;;;;;;5001144;28;20458;-87
2022/05/07 11:26:56;;;;;;;26.98;20.40;;;25.30;69.50;;;;;;5017542;28;20052;-87
2022/05/07 11:29:22;;;;;;;21.33;18.75;;;25.30;66.70;;;;;;5036764;28;20045;-87
2022/05/07 11:31:58;;;;;;;24.65;20.25;;;25.30;71.50;;;;;;5036361;28;20091;-84
2022/05/07 11:34:33;;;;;;;23.50;19.42;;;25.10;67.30;;;;;;5054528;28;20572;-86
2022/05/07 11:37:35;;;;;;;23.25;18.55;;;24.70;70.10;;;;;;5020456;28;20045;-87
2022/05/07 11:40:01;;;;;;;23.42;18.45;;;24.50;67.80;;;;;;4999482;28;20136;-87
2022/05/07 11:42:27;;;;;;;22.70;19.40;;;24.30;74.50;;;;;;5014888;28;20483;-85
2022/05/07 11:47:49;;;;;;;26.10;17.98;;;24.00;77.20;;;;;;4996258;28;20050;-89
2022/05/07 11:50:21;;;;;;;23.73;17.63;;;23.90;75.30;;;;;;4996016;28;20057;-86
2022/05/07 11:52:46;;;;;;;23.25;16.33;;;24.10;72.50;;;;;;5031829;28;20060;-87
2022/05/07 11:55:12;;;;;;;22.55;18.02;;;24.30;68.70;;;;;;5032151;28;20076;-88
2022/05/07 11:57:38;;;;;;;23.10;19.75;;;24.50;67.50;;;;;;5015268;28;20483;-84
2022/05/07 12:00:21;;;;;;;23.73;19.58;;;24.60;65.70;;;;;;5004102;28;20084;-86
2022/05/07 12:02:57;;;;;;;20.58;17.88;;;24.70;64.40;;;;;;5012341;28;20046;-88
2022/05/07 12:05:25;;;;;;;24.58;19.40;;;24.90;63.80;;;;;;5022814;28;20084;-85
2022/05/07 12:07:52;;;;;;;22.70;18.80;;;25.20;62.50;;;;;;5015605;28;20053;-86
2022/05/07 12:10:20;;;;;;;24.50;19.30;;;25.20;61.30;;;;;;5015244;28;20060;-88
2022/05/07 12:12:51;;;;;;;23.40;19.75;;;24.70;61.90;;;;;;5015100;28;20049;-85
2022/05/07 12:17:51;;;;;;;23.25;18.30;;;24.40;64.90;;;;;;5015356;28;20092;-87
2022/05/07 12:18:04;;;;;;;19.00;16.80;;;24.30;65.40;;;;;;5030370;28;20049;-87
2022/05/07 12:20:29;;;;;;;20.20;18.00;;;24.10;67.20;;;;;;5016380;28;20058;-86
2022/05/07 12:31:08;;;;;;;22.45;16.30;;;24.00;68.50;;;;;;5046509;28;20045;-86
2022/05/07 12:33:35;;;;;;;20.17;17.33;;;24.30;67.90;;;;;;5035724;28;20049;-87
2022/05/07 12:36:01;;;;;;;20.25;16.38;;;24.70;68.30;;;;;;5036053;28;20049;-85
2022/05/07 12:38:30;;;;;;;18.95;16.90;;;25.30;64.60;;;;;;5035923;28;20067;-87
2022/05/07 12:40:56;;;;;;;20.42;17.63;;;25.40;63.30;;;;;;5035075;28;20055;-88
2022/05/07 12:43:24;;;;;;;23.52;17.95;;;25.40;62.30;;;;;;5019513;28;20500;-86
2022/05/07 12:45:50;;;;;;;25.42;18.42;;;25.30;61.70;;;;;;5019223;28;20467;-87
2022/05/07 12:48:17;;;;;;;24.73;20.30;;;25.50;61.90;;;;;;5053000;28;20045;-88
2022/05/07 12:50:44;;;;;;;24.83;19.40;;;25.80;59.70;;;;;;5018572;28;20142;-88
2022/05/07 12:53:10;;;;;;;22.30;17.88;;;25.90;59.40;;;;;;5052972;28;20060;-87
2022/05/07 12:55:36;;;;;;;23.25;18.77;;;26.10;59.60;;;;;;5035502;28;20049;-87
2022/05/07 12:58:03;;;;;;;23.27;19.17;;;26.00;58.60;;;;;;5035078;28;20052;-86
2022/05/07 13:00:30;;;;;;;24.45;18.48;;;25.60;60.00;;;;;;5018438;28;20067;-87
2022/05/07 13:03:00;;;;;;;25.88;20.27;;;25.10;62.30;;;;;;5051942;28;20055;-85
2022/05/07 13:05:26;;;;;;;27.80;18.93;;;24.80;61.90;;;;;;5018665;28;20464;-86
2022/05/07 13:07:54;;;;;;;23.88;17.73;;;24.60;64.60;;;;;;5018741;28;20284;-85
2022/05/07 13:10:20;;;;;;;24.15;18.55;;;24.40;65.70;;;;;;5019048;28;20072;-87
2022/05/07 13:12:46;;;;;;;25.40;18.73;;;24.10;67.40;;;;;;5035192;28;20045;-86
2022/05/07 13:15:12;;;;;;;29.27;19.92;;;23.80;69.40;;;;;;5035031;28;20045;-88